PWSweather.com
Personal Weather Stations
Station Observations
ANTHEMNP
Anthem North Parkside, Anthem, AZ 85086

Anthem North ParksideAnthem, AZ 85086

Lat: 33.876464, Lon: -112.13861199999997

Elevation: 1930

Station Type: Davis Vantage Vue with Pro 2 console

http://www.azjerry.com/ANPW/wxindex.php

High Low Average
Temperature 91.6°F33.1°C 68.6°F20.3°C 78.8°F26.0°C
Dew Point 45.0°F7.2°C 24.0°F-4.4°C 35.9°F2.2°C
Winds 5.7 mph 9.2 kmh Calm Calm 3.0 mph SSE4.8 kmh SSE
Wind Gusts 15.0 mph24.1 kmh -- 6.0 mph9.7 kmh
Humidity 36% 9% 23%
Pressure 29.87 in1011.5 mb 29.76 in1007.8 mb -
Precipitation 0.00 in0.0 mm - -
Hour Temp Dew Point Humidity Winds Wind Gusts Pressure Precip Precip Rate Daily Precip Total
12:00 AM 74.1°F23.4°C 42.0°F5.6°C 31% 3.5 mph N5.6 kmh N 8.0 mph12.9 kmh 29.84 in1010.5 mb 0.00 in0.0 mm 0.00 in0.0 mm 0.00 in0.0 mm
12:10 AM 74.5°F23.6°C 42.0°F5.6°C 31% 5.6 mph NNW9.0 kmh NNW 10.0 mph16.1 kmh 29.84 in1010.5 mb 0.00 in0.0 mm 0.00 in0.0 mm 0.00 in0.0 mm
12:20 AM 74.4°F23.6°C 41.0°F5.0°C 30% 5.6 mph NNE9.0 kmh NNE 9.0 mph14.5 kmh 29.84 in1010.5 mb 0.00 in0.0 mm 0.00 in0.0 mm 0.00 in0.0 mm
12:30 AM 74.4°F23.6°C 41.0°F5.0°C 30% 4.4 mph N7.1 kmh N 9.0 mph14.5 kmh 29.84 in1010.5 mb 0.00 in0.0 mm 0.00 in0.0 mm 0.00 in0.0 mm
12:40 AM 74.0°F23.3°C 41.0°F5.0°C 30% 4.0 mph NE6.4 kmh NE 7.0 mph11.3 kmh 29.84 in1010.5 mb 0.00 in0.0 mm 0.00 in0.0 mm 0.00 in0.0 mm
12:50 AM 73.6°F23.1°C 41.0°F5.0°C 31% 4.0 mph N6.4 kmh N 7.0 mph11.3 kmh 29.84 in1010.5 mb 0.00 in0.0 mm 0.00 in0.0 mm 0.00 in0.0 mm
01:00 AM 72.9°F22.7°C 41.0°F5.0°C 32% 3.7 mph NNE6.0 kmh NNE 7.0 mph11.3 kmh 29.84 in1010.5 mb 0.00 in0.0 mm 0.00 in0.0 mm 0.00 in0.0 mm
01:10 AM 72.3°F22.4°C 42.0°F5.6°C 33% 2.5 mph NNW4.0 kmh NNW 5.0 mph8.0 kmh 29.84 in1010.5 mb 0.00 in0.0 mm 0.00 in0.0 mm 0.00 in0.0 mm
01:20 AM 72.3°F22.4°C 42.0°F5.6°C 33% 3.2 mph NNE5.1 kmh NNE 8.0 mph12.9 kmh 29.84 in1010.5 mb 0.00 in0.0 mm 0.00 in0.0 mm 0.00 in0.0 mm
01:30 AM 72.3°F22.4°C 42.0°F5.6°C 33% 3.2 mph N5.1 kmh N 6.0 mph9.7 kmh 29.84 in1010.5 mb 0.00 in0.0 mm 0.00 in0.0 mm 0.00 in0.0 mm
01:40 AM 72.3°F22.4°C 42.0°F5.6°C 33% 3.8 mph NNE6.1 kmh NNE 7.0 mph11.3 kmh 29.84 in1010.5 mb 0.00 in0.0 mm 0.00 in0.0 mm 0.00 in0.0 mm
01:50 AM 71.9°F22.2°C 41.0°F5.0°C 33% 4.6 mph N7.4 kmh N 8.0 mph12.9 kmh 29.84 in1010.5 mb 0.00 in0.0 mm 0.00 in0.0 mm 0.00 in0.0 mm
02:00 AM 72.1°F22.3°C 41.0°F5.0°C 33% 4.4 mph NNE7.1 kmh NNE 7.0 mph11.3 kmh 29.84 in1010.5 mb 0.00 in0.0 mm 0.00 in0.0 mm 0.00 in0.0 mm
02:10 AM 71.9°F22.2°C 41.0°F5.0°C 33% 4.1 mph NE6.6 kmh NE 7.0 mph11.3 kmh 29.84 in1010.5 mb 0.00 in0.0 mm 0.00 in0.0 mm 0.00 in0.0 mm
02:20 AM 71.9°F22.2°C 41.0°F5.0°C 33% 4.9 mph N7.9 kmh N 9.0 mph14.5 kmh 29.84 in1010.5 mb 0.00 in0.0 mm 0.00 in0.0 mm 0.00 in0.0 mm
02:30 AM 71.8°F22.1°C 41.0°F5.0°C 33% 4.7 mph N7.6 kmh N 10.0 mph16.1 kmh 29.83 in1010.2 mb 0.00 in0.0 mm 0.00 in0.0 mm 0.00 in0.0 mm
02:40 AM 71.8°F22.1°C 41.0°F5.0°C 33% 4.9 mph N7.9 kmh N 9.0 mph14.5 kmh 29.83 in1010.2 mb 0.00 in0.0 mm 0.00 in0.0 mm 0.00 in0.0 mm
02:50 AM 71.6°F22.0°C 41.0°F5.0°C 33% 3.3 mph N5.3 kmh N 8.0 mph12.9 kmh 29.83 in1010.2 mb 0.00 in0.0 mm 0.00 in0.0 mm 0.00 in0.0 mm
03:00 AM 71.6°F22.0°C 41.0°F5.0°C 33% 3.1 mph N5.0 kmh N 6.0 mph9.7 kmh 29.82 in1009.8 mb 0.00 in0.0 mm 0.00 in0.0 mm 0.00 in0.0 mm
03:10 AM 71.3°F21.8°C 41.0°F5.0°C 33% 3.7 mph N6.0 kmh N 7.0 mph11.3 kmh 29.82 in1009.8 mb 0.00 in0.0 mm 0.00 in0.0 mm 0.00 in0.0 mm
03:20 AM 71.0°F21.7°C 41.0°F5.0°C 34% 3.4 mph N5.5 kmh N 5.0 mph8.0 kmh 29.82 in1009.8 mb 0.00 in0.0 mm 0.00 in0.0 mm 0.00 in0.0 mm
03:30 AM 71.2°F21.8°C 41.0°F5.0°C 34% 3.6 mph NE5.8 kmh NE 6.0 mph9.7 kmh 29.82 in1009.8 mb 0.00 in0.0 mm 0.00 in0.0 mm 0.00 in0.0 mm
03:40 AM 70.1°F21.2°C 41.0°F5.0°C 35% 4.3 mph NNE6.9 kmh NNE 7.0 mph11.3 kmh 29.82 in1009.8 mb 0.00 in0.0 mm 0.00 in0.0 mm 0.00 in0.0 mm
03:50 AM 70.0°F21.1°C 41.0°F5.0°C 35% 4.3 mph N6.9 kmh N 8.0 mph12.9 kmh 29.82 in1009.8 mb 0.00 in0.0 mm 0.00 in0.0 mm 0.00 in0.0 mm
04:00 AM 70.1°F21.2°C 41.0°F5.0°C 35% 3.9 mph N6.3 kmh N 7.0 mph11.3 kmh 29.82 in1009.8 mb 0.00 in0.0 mm 0.00 in0.0 mm 0.00 in0.0 mm
04:10 AM 70.1°F21.2°C 40.0°F4.4°C 34% 3.2 mph N5.1 kmh N 5.0 mph8.0 kmh 29.82 in1009.8 mb 0.00 in0.0 mm 0.00 in0.0 mm 0.00 in0.0 mm
04:20 AM 70.1°F21.2°C 41.0°F5.0°C 35% 4.8 mph N7.7 kmh N 8.0 mph12.9 kmh 29.82 in1009.8 mb 0.00 in0.0 mm 0.00 in0.0 mm 0.00 in0.0 mm
04:30 AM 69.5°F20.8°C 41.0°F5.0°C 36% 4.5 mph NE7.2 kmh NE 8.0 mph12.9 kmh 29.82 in1009.8 mb 0.00 in0.0 mm 0.00 in0.0 mm 0.00 in0.0 mm
04:40 AM 69.5°F20.8°C 41.0°F5.0°C 36% 4.7 mph NNW7.6 kmh NNW 9.0 mph14.5 kmh 29.82 in1009.8 mb 0.00 in0.0 mm 0.00 in0.0 mm 0.00 in0.0 mm
04:50 AM 69.7°F20.9°C 41.0°F5.0°C 35% 4.8 mph NNW7.7 kmh NNW 9.0 mph14.5 kmh 29.81 in1009.5 mb 0.00 in0.0 mm 0.00 in0.0 mm 0.00 in0.0 mm
05:00 AM 70.0°F21.1°C 41.0°F5.0°C 35% 4.8 mph N7.7 kmh N 9.0 mph14.5 kmh 29.82 in1009.8 mb 0.00 in0.0 mm 0.00 in0.0 mm 0.00 in0.0 mm
05:10 AM 69.8°F21.0°C 41.0°F5.0°C 35% 4.6 mph NNE7.4 kmh NNE 8.0 mph12.9 kmh 29.82 in1009.8 mb 0.00 in0.0 mm 0.00 in0.0 mm 0.00 in0.0 mm
05:20 AM 69.1°F20.6°C 41.0°F5.0°C 36% 4.6 mph N7.4 kmh N 8.0 mph12.9 kmh 29.82 in1009.8 mb 0.00 in0.0 mm 0.00 in0.0 mm 0.00 in0.0 mm
05:30 AM 68.9°F20.5°C 41.0°F5.0°C 36% 4.3 mph N6.9 kmh N 8.0 mph12.9 kmh 29.82 in1009.8 mb 0.00 in0.0 mm 0.00 in0.0 mm 0.00 in0.0 mm
05:40 AM 68.8°F20.4°C 41.0°F5.0°C 36% 4.4 mph NNE7.1 kmh NNE 8.0 mph12.9 kmh 29.82 in1009.8 mb 0.00 in0.0 mm 0.00 in0.0 mm 0.00 in0.0 mm
05:50 AM 68.9°F20.5°C 41.0°F5.0°C 36% 5.3 mph NNW8.5 kmh NNW 9.0 mph14.5 kmh 29.82 in1009.8 mb 0.00 in0.0 mm 0.00 in0.0 mm 0.00 in0.0 mm
06:00 AM 69.0°F20.6°C 41.0°F5.0°C 36% 4.8 mph NE7.7 kmh NE 8.0 mph12.9 kmh 29.83 in1010.2 mb 0.00 in0.0 mm 0.00 in0.0 mm 0.00 in0.0 mm
06:10 AM 68.8°F20.4°C 41.0°F5.0°C 36% 5.2 mph NE8.4 kmh NE 10.0 mph16.1 kmh 29.83 in1010.2 mb 0.00 in0.0 mm 0.00 in0.0 mm 0.00 in0.0 mm
06:20 AM 68.6°F20.3°C 40.0°F4.4°C 36% 4.6 mph N7.4 kmh N 8.0 mph12.9 kmh 29.83 in1010.2 mb 0.00 in0.0 mm 0.00 in0.0 mm 0.00 in0.0 mm
06:30 AM 68.9°F20.5°C 41.0°F5.0°C 36% 5.5 mph N8.9 kmh N 10.0 mph16.1 kmh 29.84 in1010.5 mb 0.00 in0.0 mm 0.00 in0.0 mm 0.00 in0.0 mm
06:40 AM 68.9°F20.5°C 41.0°F5.0°C 36% 5.3 mph NE8.5 kmh NE 10.0 mph16.1 kmh 29.84 in1010.5 mb 0.00 in0.0 mm 0.00 in0.0 mm 0.00 in0.0 mm
06:50 AM 69.0°F20.6°C 40.0°F4.4°C 35% 5.1 mph N8.2 kmh N 8.0 mph12.9 kmh 29.83 in1010.2 mb 0.00 in0.0 mm 0.00 in0.0 mm 0.00 in0.0 mm
07:00 AM 69.3°F20.7°C 40.0°F4.4°C 35% 5.0 mph NNE8.0 kmh NNE 9.0 mph14.5 kmh 29.84 in1010.5 mb 0.00 in0.0 mm 0.00 in0.0 mm 0.00 in0.0 mm
07:10 AM 69.3°F20.7°C 40.0°F4.4°C 35% 5.0 mph N8.0 kmh N 9.0 mph14.5 kmh 29.84 in1010.5 mb 0.00 in0.0 mm 0.00 in0.0 mm 0.00 in0.0 mm
07:20 AM 69.3°F20.7°C 41.0°F5.0°C 36% 4.7 mph NNW7.6 kmh NNW 8.0 mph12.9 kmh 29.84 in1010.5 mb 0.00 in0.0 mm 0.00 in0.0 mm 0.00 in0.0 mm
07:30 AM 69.5°F20.8°C 41.0°F5.0°C 36% 5.2 mph N8.4 kmh N 10.0 mph16.1 kmh 29.84 in1010.5 mb 0.00 in0.0 mm 0.00 in0.0 mm 0.00 in0.0 mm
07:40 AM 70.3°F21.3°C 41.0°F5.0°C 34% 5.6 mph NE9.0 kmh NE 10.0 mph16.1 kmh 29.84 in1010.5 mb 0.00 in0.0 mm 0.00 in0.0 mm 0.00 in0.0 mm
07:50 AM 71.1°F21.7°C 41.0°F5.0°C 34% 5.0 mph N8.0 kmh N 10.0 mph16.1 kmh 29.85 in1010.8 mb 0.00 in0.0 mm 0.00 in0.0 mm 0.00 in0.0 mm
08:00 AM 71.9°F22.2°C 41.0°F5.0°C 33% 5.2 mph NNW8.4 kmh NNW 10.0 mph16.1 kmh 29.85 in1010.8 mb 0.00 in0.0 mm 0.00 in0.0 mm 0.00 in0.0 mm
08:10 AM 73.0°F22.8°C 41.0°F5.0°C 32% 5.7 mph N9.2 kmh N 10.0 mph16.1 kmh 29.85 in1010.8 mb 0.00 in0.0 mm 0.00 in0.0 mm 0.00 in0.0 mm
08:20 AM 74.3°F23.5°C 42.0°F5.6°C 31% 4.4 mph N7.1 kmh N 8.0 mph12.9 kmh 29.86 in1011.2 mb 0.00 in0.0 mm 0.00 in0.0 mm 0.00 in0.0 mm
08:30 AM 75.3°F24.1°C 42.0°F5.6°C 30% 4.1 mph N6.6 kmh N 7.0 mph11.3 kmh 29.86 in1011.2 mb 0.00 in0.0 mm 0.00 in0.0 mm 0.00 in0.0 mm
08:40 AM 76.3°F24.6°C 42.0°F5.6°C 29% 4.5 mph NNW7.2 kmh NNW 11.0 mph17.7 kmh 29.86 in1011.2 mb 0.00 in0.0 mm 0.00 in0.0 mm 0.00 in0.0 mm
08:50 AM 76.7°F24.8°C 42.0°F5.6°C 29% 4.5 mph NE7.2 kmh NE 9.0 mph14.5 kmh 29.86 in1011.2 mb 0.00 in0.0 mm 0.00 in0.0 mm 0.00 in0.0 mm
09:00 AM 77.7°F25.4°C 43.0°F6.1°C 29% 3.3 mph N5.3 kmh N 7.0 mph11.3 kmh 29.86 in1011.2 mb 0.00 in0.0 mm 0.00 in0.0 mm 0.00 in0.0 mm
09:10 AM 78.6°F25.9°C 45.0°F7.2°C 30% 2.8 mph NE4.5 kmh NE 6.0 mph9.7 kmh 29.86 in1011.2 mb 0.00 in0.0 mm 0.00 in0.0 mm 0.00 in0.0 mm
09:20 AM 79.9°F26.6°C 43.0°F6.1°C 27% 1.5 mph NE2.4 kmh NE 4.0 mph6.4 kmh 29.87 in1011.5 mb 0.00 in0.0 mm 0.00 in0.0 mm 0.00 in0.0 mm
09:30 AM 81.7°F27.6°C 45.0°F7.2°C 27% 0.1 mph NW0.2 kmh NW 2.0 mph3.2 kmh 29.87 in1011.5 mb 0.00 in0.0 mm 0.00 in0.0 mm 0.00 in0.0 mm
09:40 AM 83.5°F28.6°C 43.0°F6.1°C 24% 0.7 mph SW1.1 kmh SW 3.0 mph4.8 kmh 29.87 in1011.5 mb 0.00 in0.0 mm 0.00 in0.0 mm 0.00 in0.0 mm
09:50 AM 84.9°F29.4°C 45.0°F7.2°C 25% 0.6 mph SW1.0 kmh SW 3.0 mph4.8 kmh 29.87 in1011.5 mb 0.00 in0.0 mm 0.00 in0.0 mm 0.00 in0.0 mm
10:00 AM 85.4°F29.7°C 40.0°F4.4°C 20% 1.1 mph SE1.8 kmh SE 4.0 mph6.4 kmh 29.87 in1011.5 mb 0.00 in0.0 mm 0.00 in0.0 mm 0.00 in0.0 mm
10:10 AM 84.9°F29.4°C 41.0°F5.0°C 21% 2.4 mph S3.9 kmh S 5.0 mph8.0 kmh 29.87 in1011.5 mb 0.00 in0.0 mm 0.00 in0.0 mm 0.00 in0.0 mm
10:20 AM 85.8°F29.9°C 43.0°F6.1°C 22% 1.0 mph SE1.6 kmh SE 3.0 mph4.8 kmh 29.87 in1011.5 mb 0.00 in0.0 mm 0.00 in0.0 mm 0.00 in0.0 mm
10:30 AM 86.4°F30.2°C 40.0°F4.4°C 19% 1.0 mph SW1.6 kmh SW 4.0 mph6.4 kmh 29.86 in1011.2 mb 0.00 in0.0 mm 0.00 in0.0 mm 0.00 in0.0 mm
10:40 AM 86.3°F30.2°C 43.0°F6.1°C 22% 2.0 mph SW3.2 kmh SW 6.0 mph9.7 kmh 29.86 in1011.2 mb 0.00 in0.0 mm 0.00 in0.0 mm 0.00 in0.0 mm
10:50 AM 86.3°F30.2°C 42.0°F5.6°C 21% 2.3 mph WSW3.7 kmh WSW 6.0 mph9.7 kmh 29.86 in1011.2 mb 0.00 in0.0 mm 0.00 in0.0 mm 0.00 in0.0 mm
11:00 AM 85.9°F29.9°C 44.0°F6.7°C 23% 3.0 mph SW4.8 kmh SW 8.0 mph12.9 kmh 29.86 in1011.2 mb 0.00 in0.0 mm 0.00 in0.0 mm 0.00 in0.0 mm
11:10 AM 86.7°F30.4°C 42.0°F5.6°C 21% 1.8 mph S2.9 kmh S 6.0 mph9.7 kmh 29.86 in1011.2 mb 0.00 in0.0 mm 0.00 in0.0 mm 0.00 in0.0 mm
11:20 AM 86.9°F30.5°C 41.0°F5.0°C 20% 3.0 mph SSW4.8 kmh SSW 9.0 mph14.5 kmh 29.86 in1011.2 mb 0.00 in0.0 mm 0.00 in0.0 mm 0.00 in0.0 mm
11:30 AM 86.7°F30.4°C 41.0°F5.0°C 20% 3.1 mph SSW5.0 kmh SSW 7.0 mph11.3 kmh 29.86 in1011.2 mb 0.00 in0.0 mm 0.00 in0.0 mm 0.00 in0.0 mm
11:40 AM 87.4°F30.8°C 42.0°F5.6°C 20% 2.3 mph SW3.7 kmh SW 7.0 mph11.3 kmh 29.85 in1010.8 mb 0.00 in0.0 mm 0.00 in0.0 mm 0.00 in0.0 mm
11:50 AM 87.8°F31.0°C 41.0°F5.0°C 19% 2.5 mph WSW4.0 kmh WSW 8.0 mph12.9 kmh 29.85 in1010.8 mb 0.00 in0.0 mm 0.00 in0.0 mm 0.00 in0.0 mm
12:00 PM 88.0°F31.1°C 43.0°F6.1°C 21% 2.4 mph W3.9 kmh W 6.0 mph9.7 kmh 29.84 in1010.5 mb 0.00 in0.0 mm 0.00 in0.0 mm 0.00 in0.0 mm
12:10 PM 88.1°F31.2°C 41.0°F5.0°C 19% 2.9 mph NW4.7 kmh NW 9.0 mph14.5 kmh 29.84 in1010.5 mb 0.00 in0.0 mm 0.00 in0.0 mm 0.00 in0.0 mm
12:20 PM 88.4°F31.3°C 40.0°F4.4°C 18% 2.7 mph SSW4.3 kmh SSW 6.0 mph9.7 kmh 29.84 in1010.5 mb 0.00 in0.0 mm 0.00 in0.0 mm 0.00 in0.0 mm
12:30 PM 88.8°F31.6°C 36.0°F2.2°C 15% 2.5 mph S4.0 kmh S 6.0 mph9.7 kmh 29.83 in1010.2 mb 0.00 in0.0 mm 0.00 in0.0 mm 0.00 in0.0 mm
12:40 PM 89.2°F31.8°C 40.0°F4.4°C 18% 2.2 mph SW3.5 kmh SW 7.0 mph11.3 kmh 29.83 in1010.2 mb 0.00 in0.0 mm 0.00 in0.0 mm 0.00 in0.0 mm
12:50 PM 89.8°F32.1°C 35.0°F1.7°C 14% 1.5 mph E2.4 kmh E 6.0 mph9.7 kmh 29.82 in1009.8 mb 0.00 in0.0 mm 0.00 in0.0 mm 0.00 in0.0 mm
01:00 PM 90.2°F32.3°C 33.0°F0.6°C 13% 2.9 mph SW4.7 kmh SW 7.0 mph11.3 kmh 29.82 in1009.8 mb 0.00 in0.0 mm 0.00 in0.0 mm 0.00 in0.0 mm
01:10 PM 90.1°F32.3°C 31.0°F-0.6°C 12% 2.9 mph SSW4.7 kmh SSW 7.0 mph11.3 kmh 29.81 in1009.5 mb 0.00 in0.0 mm 0.00 in0.0 mm 0.00 in0.0 mm
01:20 PM 90.1°F32.3°C 31.0°F-0.6°C 12% 3.0 mph SW4.8 kmh SW 8.0 mph12.9 kmh 29.81 in1009.5 mb 0.00 in0.0 mm 0.00 in0.0 mm 0.00 in0.0 mm
01:30 PM 90.4°F32.4°C 31.0°F-0.6°C 12% 2.6 mph SW4.2 kmh SW 8.0 mph12.9 kmh 29.81 in1009.5 mb 0.00 in0.0 mm 0.00 in0.0 mm 0.00 in0.0 mm
01:40 PM 90.4°F32.4°C 31.0°F-0.6°C 12% 2.4 mph SW3.9 kmh SW 8.0 mph12.9 kmh 29.80 in1009.1 mb 0.00 in0.0 mm 0.00 in0.0 mm 0.00 in0.0 mm
01:50 PM 90.9°F32.7°C 32.0°F0.0°C 12% 2.3 mph S3.7 kmh S 7.0 mph11.3 kmh 29.80 in1009.1 mb 0.00 in0.0 mm 0.00 in0.0 mm 0.00 in0.0 mm
02:00 PM 91.2°F32.9°C 30.0°F-1.1°C 11% 1.5 mph NW2.4 kmh NW 5.0 mph8.0 kmh 29.79 in1008.8 mb 0.00 in0.0 mm 0.00 in0.0 mm 0.00 in0.0 mm
02:10 PM 90.6°F32.6°C 29.0°F-1.7°C 11% 1.8 mph WNW2.9 kmh WNW 8.0 mph12.9 kmh 29.79 in1008.8 mb 0.00 in0.0 mm 0.00 in0.0 mm 0.00 in0.0 mm
02:20 PM 90.9°F32.7°C 27.0°F-2.8°C 10% 2.0 mph S3.2 kmh S 9.0 mph14.5 kmh 29.79 in1008.8 mb 0.00 in0.0 mm 0.00 in0.0 mm 0.00 in0.0 mm
02:30 PM 91.0°F32.8°C 32.0°F0.0°C 12% 2.3 mph SSW3.7 kmh SSW 7.0 mph11.3 kmh 29.79 in1008.8 mb 0.00 in0.0 mm 0.00 in0.0 mm 0.00 in0.0 mm
02:40 PM 91.2°F32.9°C 27.0°F-2.8°C 10% 2.2 mph SE3.5 kmh SE 7.0 mph11.3 kmh 29.78 in1008.5 mb 0.00 in0.0 mm 0.00 in0.0 mm 0.00 in0.0 mm
02:50 PM 91.4°F33.0°C 32.0°F0.0°C 12% 1.2 mph SW1.9 kmh SW 3.0 mph4.8 kmh 29.79 in1008.8 mb 0.00 in0.0 mm 0.00 in0.0 mm 0.00 in0.0 mm
03:00 PM 91.5°F33.1°C 34.0°F1.1°C 13% 2.5 mph WSW4.0 kmh WSW 7.0 mph11.3 kmh 29.78 in1008.5 mb 0.00 in0.0 mm 0.00 in0.0 mm 0.00 in0.0 mm
03:10 PM 91.5°F33.1°C 32.0°F0.0°C 12% 2.2 mph NW3.5 kmh NW 8.0 mph12.9 kmh 29.78 in1008.5 mb 0.00 in0.0 mm 0.00 in0.0 mm 0.00 in0.0 mm
03:20 PM 91.5°F33.1°C 32.0°F0.0°C 12% 2.3 mph SSW3.7 kmh SSW 8.0 mph12.9 kmh 29.78 in1008.5 mb 0.00 in0.0 mm 0.00 in0.0 mm 0.00 in0.0 mm
03:30 PM 91.6°F33.1°C 30.0°F-1.1°C 11% 2.1 mph SW3.4 kmh SW 9.0 mph14.5 kmh 29.77 in1008.1 mb 0.00 in0.0 mm 0.00 in0.0 mm 0.00 in0.0 mm
03:40 PM 91.6°F33.1°C 32.0°F0.0°C 12% 2.8 mph WNW4.5 kmh WNW 9.0 mph14.5 kmh 29.77 in1008.1 mb 0.00 in0.0 mm 0.00 in0.0 mm 0.00 in0.0 mm
03:50 PM 91.3°F32.9°C 30.0°F-1.1°C 11% 3.3 mph SSW5.3 kmh SSW 11.0 mph17.7 kmh 29.77 in1008.1 mb 0.00 in0.0 mm 0.00 in0.0 mm 0.00 in0.0 mm
04:00 PM 91.1°F32.8°C 30.0°F-1.1°C 11% 1.3 mph SW2.1 kmh SW 5.0 mph8.0 kmh 29.77 in1008.1 mb 0.00 in0.0 mm 0.00 in0.0 mm 0.00 in0.0 mm
04:10 PM 90.8°F32.7°C 29.0°F-1.7°C 11% 1.3 mph SW2.1 kmh SW 5.0 mph8.0 kmh 29.77 in1008.1 mb 0.00 in0.0 mm 0.00 in0.0 mm 0.00 in0.0 mm
04:20 PM 90.3°F32.4°C 31.0°F-0.6°C 12% 1.6 mph SW2.6 kmh SW 6.0 mph9.7 kmh 29.77 in1008.1 mb 0.00 in0.0 mm 0.00 in0.0 mm 0.00 in0.0 mm
04:30 PM 90.1°F32.3°C 24.0°F-4.4°C 9% 2.0 mph WSW3.2 kmh WSW 7.0 mph11.3 kmh 29.77 in1008.1 mb 0.00 in0.0 mm 0.00 in0.0 mm 0.00 in0.0 mm
04:40 PM 89.8°F32.1°C 29.0°F-1.7°C 11% 1.4 mph ESE2.3 kmh ESE 4.0 mph6.4 kmh 29.76 in1007.8 mb 0.00 in0.0 mm 0.00 in0.0 mm 0.00 in0.0 mm
04:50 PM 89.4°F31.9°C 26.0°F-3.3°C 10% 3.9 mph SW6.3 kmh SW 10.0 mph16.1 kmh 29.77 in1008.1 mb 0.00 in0.0 mm 0.00 in0.0 mm 0.00 in0.0 mm
05:00 PM 89.5°F31.9°C 26.0°F-3.3°C 10% 2.7 mph SW4.3 kmh SW 15.0 mph24.1 kmh 29.77 in1008.1 mb 0.00 in0.0 mm 0.00 in0.0 mm 0.00 in0.0 mm
05:10 PM 88.9°F31.6°C 28.0°F-2.2°C 11% 2.5 mph NW4.0 kmh NW 8.0 mph12.9 kmh 29.77 in1008.1 mb 0.00 in0.0 mm 0.00 in0.0 mm 0.00 in0.0 mm
05:20 PM 88.5°F31.4°C 25.0°F-3.9°C 10% 1.4 mph W2.3 kmh W 6.0 mph9.7 kmh 29.77 in1008.1 mb 0.00 in0.0 mm 0.00 in0.0 mm 0.00 in0.0 mm
05:30 PM 88.0°F31.1°C 25.0°F-3.9°C 10% 2.6 mph SSW4.2 kmh SSW 6.0 mph9.7 kmh 29.77 in1008.1 mb 0.00 in0.0 mm 0.00 in0.0 mm 0.00 in0.0 mm
05:40 PM 87.7°F30.9°C 25.0°F-3.9°C 10% 2.4 mph SW3.9 kmh SW 6.0 mph9.7 kmh 29.77 in1008.1 mb 0.00 in0.0 mm 0.00 in0.0 mm 0.00 in0.0 mm
05:50 PM 87.2°F30.7°C 24.0°F-4.4°C 10% 1.4 mph SSW2.3 kmh SSW 4.0 mph6.4 kmh 29.77 in1008.1 mb 0.00 in0.0 mm 0.00 in0.0 mm 0.00 in0.0 mm
06:00 PM 86.6°F30.3°C 24.0°F-4.4°C 10% 0.9 mph SW1.4 kmh SW 2.0 mph3.2 kmh 29.77 in1008.1 mb 0.00 in0.0 mm 0.00 in0.0 mm 0.00 in0.0 mm
06:10 PM 85.8°F29.9°C 25.0°F-3.9°C 11% 0.2 mph S0.3 kmh S 2.0 mph3.2 kmh 29.77 in1008.1 mb 0.00 in0.0 mm 0.00 in0.0 mm 0.00 in0.0 mm
06:20 PM 85.4°F29.7°C 25.0°F-3.9°C 11% 0.7 mph SW1.1 kmh SW 3.0 mph4.8 kmh 29.77 in1008.1 mb 0.00 in0.0 mm 0.00 in0.0 mm 0.00 in0.0 mm
06:30 PM 84.5°F29.2°C 27.0°F-2.8°C 12% Calm Calm 1.0 mph1.6 kmh 29.77 in1008.1 mb 0.00 in0.0 mm 0.00 in0.0 mm 0.00 in0.0 mm
06:40 PM 82.9°F28.3°C 27.0°F-2.8°C 13% Calm Calm 1.0 mph1.6 kmh 29.77 in1008.1 mb 0.00 in0.0 mm 0.00 in0.0 mm 0.00 in0.0 mm
06:50 PM 81.7°F27.6°C 30.0°F-1.1°C 15% Calm Calm -- 29.77 in1008.1 mb 0.00 in0.0 mm 0.00 in0.0 mm 0.00 in0.0 mm
07:00 PM 80.1°F26.7°C 28.0°F-2.2°C 15% Calm Calm -- 29.77 in1008.1 mb 0.00 in0.0 mm 0.00 in0.0 mm 0.00 in0.0 mm
07:10 PM 79.5°F26.4°C 28.0°F-2.2°C 15% Calm Calm 1.0 mph1.6 kmh 29.77 in1008.1 mb 0.00 in0.0 mm 0.00 in0.0 mm 0.00 in0.0 mm
07:20 PM 80.1°F26.7°C 28.0°F-2.2°C 15% Calm Calm -- 29.78 in1008.5 mb 0.00 in0.0 mm 0.00 in0.0 mm 0.00 in0.0 mm
07:30 PM 80.1°F26.7°C 28.0°F-2.2°C 15% Calm Calm 1.0 mph1.6 kmh 29.78 in1008.5 mb 0.00 in0.0 mm 0.00 in0.0 mm 0.00 in0.0 mm
07:40 PM 79.4°F26.3°C 28.0°F-2.2°C 15% Calm Calm -- 29.78 in1008.5 mb 0.00 in0.0 mm 0.00 in0.0 mm 0.00 in0.0 mm
07:50 PM 78.9°F26.1°C 29.0°F-1.7°C 16% Calm Calm -- 29.78 in1008.5 mb 0.00 in0.0 mm 0.00 in0.0 mm 0.00 in0.0 mm
08:00 PM 77.3°F25.2°C 32.0°F0.0°C 19% Calm Calm 1.0 mph1.6 kmh 29.78 in1008.5 mb 0.00 in0.0 mm 0.00 in0.0 mm 0.00 in0.0 mm
08:10 PM 76.5°F24.7°C 31.0°F-0.6°C 19% Calm Calm 1.0 mph1.6 kmh 29.78 in1008.5 mb 0.00 in0.0 mm 0.00 in0.0 mm 0.00 in0.0 mm
08:20 PM 75.6°F24.2°C 32.0°F0.0°C 20% Calm Calm 1.0 mph1.6 kmh 29.78 in1008.5 mb 0.00 in0.0 mm 0.00 in0.0 mm 0.00 in0.0 mm
08:30 PM 75.1°F23.9°C 30.0°F-1.1°C 19% Calm Calm -- 29.79 in1008.8 mb 0.00 in0.0 mm 0.00 in0.0 mm 0.00 in0.0 mm
08:40 PM 75.5°F24.2°C 30.0°F-1.1°C 19% Calm Calm 1.0 mph1.6 kmh 29.79 in1008.8 mb 0.00 in0.0 mm 0.00 in0.0 mm 0.00 in0.0 mm
08:50 PM 75.5°F24.2°C 32.0°F0.0°C 20% Calm Calm 1.0 mph1.6 kmh 29.79 in1008.8 mb 0.00 in0.0 mm 0.00 in0.0 mm 0.00 in0.0 mm
09:00 PM 74.1°F23.4°C 33.0°F0.6°C 22% Calm Calm -- 29.80 in1009.1 mb 0.00 in0.0 mm 0.00 in0.0 mm 0.00 in0.0 mm
09:10 PM 73.3°F22.9°C 32.0°F0.0°C 22% 0.1 mph SE0.2 kmh SE 1.0 mph1.6 kmh 29.80 in1009.1 mb 0.00 in0.0 mm 0.00 in0.0 mm 0.00 in0.0 mm
09:20 PM 73.9°F23.3°C 32.0°F0.0°C 21% 0.5 mph ESE0.8 kmh ESE 1.0 mph1.6 kmh 29.80 in1009.1 mb 0.00 in0.0 mm 0.00 in0.0 mm 0.00 in0.0 mm
09:30 PM 74.1°F23.4°C 31.0°F-0.6°C 20% Calm Calm 1.0 mph1.6 kmh 29.80 in1009.1 mb 0.00 in0.0 mm 0.00 in0.0 mm 0.00 in0.0 mm
09:40 PM 73.1°F22.8°C 31.0°F-0.6°C 21% Calm Calm 1.0 mph1.6 kmh 29.80 in1009.1 mb 0.00 in0.0 mm 0.00 in0.0 mm 0.00 in0.0 mm
09:50 PM 74.1°F23.4°C 29.0°F-1.7°C 19% Calm Calm 1.0 mph1.6 kmh 29.80 in1009.1 mb 0.00 in0.0 mm 0.00 in0.0 mm 0.00 in0.0 mm
10:00 PM 73.1°F22.8°C 32.0°F0.0°C 22% Calm Calm 1.0 mph1.6 kmh 29.79 in1008.8 mb 0.00 in0.0 mm 0.00 in0.0 mm 0.00 in0.0 mm
10:10 PM 72.2°F22.3°C 31.0°F-0.6°C 22% 0.3 mph E0.5 kmh E 1.0 mph1.6 kmh 29.79 in1008.8 mb 0.00 in0.0 mm 0.00 in0.0 mm 0.00 in0.0 mm
10:20 PM 72.6°F22.6°C 29.0°F-1.7°C 20% 0.3 mph N0.5 kmh N 2.0 mph3.2 kmh 29.79 in1008.8 mb 0.00 in0.0 mm 0.00 in0.0 mm 0.00 in0.0 mm
10:30 PM 72.3°F22.4°C 28.0°F-2.2°C 19% Calm Calm 1.0 mph1.6 kmh 29.79 in1008.8 mb 0.00 in0.0 mm 0.00 in0.0 mm 0.00 in0.0 mm
10:40 PM 70.9°F21.6°C 32.0°F0.0°C 24% 0.3 mph SW0.5 kmh SW 5.0 mph8.0 kmh 29.80 in1009.1 mb 0.00 in0.0 mm 0.00 in0.0 mm 0.00 in0.0 mm
10:50 PM 69.5°F20.8°C 32.0°F0.0°C 25% 0.1 mph WSW0.2 kmh WSW 1.0 mph1.6 kmh 29.79 in1008.8 mb 0.00 in0.0 mm 0.00 in0.0 mm 0.00 in0.0 mm
11:00 PM 69.6°F20.9°C 31.0°F-0.6°C 24% 1.5 mph NE2.4 kmh NE 4.0 mph6.4 kmh 29.79 in1008.8 mb 0.00 in0.0 mm 0.00 in0.0 mm 0.00 in0.0 mm
11:10 PM 69.4°F20.8°C 31.0°F-0.6°C 24% 1.9 mph N3.1 kmh N 4.0 mph6.4 kmh 29.79 in1008.8 mb 0.00 in0.0 mm 0.00 in0.0 mm 0.00 in0.0 mm
11:20 PM 70.6°F21.4°C 31.0°F-0.6°C 23% 2.2 mph NE3.5 kmh NE 4.0 mph6.4 kmh 29.79 in1008.8 mb 0.00 in0.0 mm 0.00 in0.0 mm 0.00 in0.0 mm
11:30 PM 70.5°F21.4°C 31.0°F-0.6°C 23% 2.7 mph NE4.3 kmh NE 6.0 mph9.7 kmh 29.79 in1008.8 mb 0.00 in0.0 mm 0.00 in0.0 mm 0.00 in0.0 mm
11:40 PM 71.0°F21.7°C 30.0°F-1.1°C 22% 3.0 mph NNE4.8 kmh NNE 6.0 mph9.7 kmh 29.79 in1008.8 mb 0.00 in0.0 mm 0.00 in0.0 mm 0.00 in0.0 mm
11:50 PM 71.3°F21.8°C 30.0°F-1.1°C 22% 3.0 mph NNE4.8 kmh NNE 5.0 mph8.0 kmh 29.78 in1008.5 mb 0.00 in0.0 mm 0.00 in0.0 mm 0.00 in0.0 mm